Galice, Oregon
Current Conditions -  °F | °C
As of 1:56 PM on Monday 24 Nov 2014 (Local Time) from KSXT Reporting Station
Overcast Overcast  
Wind Chill: 43°   Ceiling: 9000
Heat Index: 48°   Visibility: 10mi
Dew Point: 31°   Wind: 12mph
Humidity: 52%   Direction: 190°S
Pressure: 30.35"   Gusts: NA
Location:  42.5504°N, 123.448°W
Report Text: KSXT 242156Z AUTO 19010KT 10SM OVC090 09/M01 A3035 RMK AO2 SLP282 T00891006
Loading
Personal Weather Stations






























Interactive Weather Map New forecast layout! Learn more

10-Day Weather Forecast

Advertisements
Track Severe Weather on mobile